sensor_id;sensor_type;location;lat;lon;timestamp;temperature;humidity
1347;DHT22;667;48.796;9.480;2024-02-23T00:01:26;10.10;71.90
1347;DHT22;667;48.796;9.480;2024-02-23T00:03:51;10.10;72.50
1347;DHT22;667;48.796;9.480;2024-02-23T00:06:17;10.10;72.50
1347;DHT22;667;48.796;9.480;2024-02-23T00:08:43;10.10;72.90
1347;DHT22;667;48.796;9.480;2024-02-23T00:11:08;10.10;72.40
1347;DHT22;667;48.796;9.480;2024-02-23T00:13:34;10.00;72.50
1347;DHT22;667;48.796;9.480;2024-02-23T00:16:00;10.00;72.60
1347;DHT22;667;48.796;9.480;2024-02-23T00:18:25;10.00;72.80
1347;DHT22;667;48.796;9.480;2024-02-23T00:20:51;10.00;72.60
1347;DHT22;667;48.796;9.480;2024-02-23T00:23:17;10.00;72.70
1347;DHT22;667;48.796;9.480;2024-02-23T00:25:42;10.00;72.40
1347;DHT22;667;48.796;9.480;2024-02-23T00:28:08;9.90;73.50
1347;DHT22;667;48.796;9.480;2024-02-23T00:30:34;9.90;73.40
1347;DHT22;667;48.796;9.480;2024-02-23T00:32:59;9.90;73.40
1347;DHT22;667;48.796;9.480;2024-02-23T00:35:25;9.90;73.20
1347;DHT22;667;48.796;9.480;2024-02-23T00:37:50;9.90;73.20
1347;DHT22;667;48.796;9.480;2024-02-23T00:40:16;9.90;73.50
1347;DHT22;667;48.796;9.480;2024-02-23T00:42:41;9.90;73.50
1347;DHT22;667;48.796;9.480;2024-02-23T00:45:07;9.90;73.70
1347;DHT22;667;48.796;9.480;2024-02-23T00:47:33;9.90;73.80
1347;DHT22;667;48.796;9.480;2024-02-23T00:50:01;9.90;73.50
1347;DHT22;667;48.796;9.480;2024-02-23T00:52:26;9.80;73.70
1347;DHT22;667;48.796;9.480;2024-02-23T00:54:52;9.80;73.90
1347;DHT22;667;48.796;9.480;2024-02-23T00:57:18;9.80;74.00
1347;DHT22;667;48.796;9.480;2024-02-23T00:59:47;9.80;73.90
1347;DHT22;667;48.796;9.480;2024-02-23T01:02:12;9.80;73.90
1347;DHT22;667;48.796;9.480;2024-02-23T01:04:38;9.90;74.20
1347;DHT22;667;48.796;9.480;2024-02-23T01:07:03;9.90;74.30
1347;DHT22;667;48.796;9.480;2024-02-23T01:09:29;9.90;74.20
1347;DHT22;667;48.796;9.480;2024-02-23T01:11:54;9.90;74.20
1347;DHT22;667;48.796;9.480;2024-02-23T01:14:20;9.90;74.20
1347;DHT22;667;48.796;9.480;2024-02-23T01:16:46;9.90;74.50
1347;DHT22;667;48.796;9.480;2024-02-23T01:19:11;9.90;74.50
1347;DHT22;667;48.796;9.480;2024-02-23T01:21:37;10.00;73.30
1347;DHT22;667;48.796;9.480;2024-02-23T01:24:02;10.00;73.10
1347;DHT22;667;48.796;9.480;2024-02-23T01:26:29;10.00;73.10
1347;DHT22;667;48.796;9.480;2024-02-23T01:28:55;10.00;73.20
1347;DHT22;667;48.796;9.480;2024-02-23T01:31:20;10.00;73.10
1347;DHT22;667;48.796;9.480;2024-02-23T01:33:46;10.00;73.10
1347;DHT22;667;48.796;9.480;2024-02-23T01:36:12;10.00;73.00
1347;DHT22;667;48.796;9.480;2024-02-23T01:38:38;9.90;74.20
1347;DHT22;667;48.796;9.480;2024-02-23T01:41:04;9.90;74.30
1347;DHT22;667;48.796;9.480;2024-02-23T01:43:29;9.90;74.50
1347;DHT22;667;48.796;9.480;2024-02-23T01:45:55;10.00;73.40
1347;DHT22;667;48.796;9.480;2024-02-23T01:48:20;10.00;73.40
1347;DHT22;667;48.796;9.480;2024-02-23T01:50:46;10.00;73.40
1347;DHT22;667;48.796;9.480;2024-02-23T01:53:12;10.00;73.60
1347;DHT22;667;48.796;9.480;2024-02-23T01:55:40;10.00;73.70
1347;DHT22;667;48.796;9.480;2024-02-23T01:58:07;10.00;73.70
1347;DHT22;667;48.796;9.480;2024-02-23T02:00:34;10.00;73.50
1347;DHT22;667;48.796;9.480;2024-02-23T02:03:00;10.00;73.70
1347;DHT22;667;48.796;9.480;2024-02-23T02:05:25;10.00;74.10
1347;DHT22;667;48.796;9.480;2024-02-23T02:07:53;10.00;74.40
1347;DHT22;667;48.796;9.480;2024-02-23T02:10:24;10.00;74.80
1347;DHT22;667;48.796;9.480;2024-02-23T02:12:50;10.00;75.00
1347;DHT22;667;48.796;9.480;2024-02-23T02:15:16;9.90;76.40
1347;DHT22;667;48.796;9.480;2024-02-23T02:17:41;9.90;76.40
1347;DHT22;667;48.796;9.480;2024-02-23T02:20:11;9.90;76.20
1347;DHT22;667;48.796;9.480;2024-02-23T02:22:37;9.90;76.20
1347;DHT22;667;48.796;9.480;2024-02-23T02:25:03;9.80;76.10
1347;DHT22;667;48.796;9.480;2024-02-23T02:27:29;9.80;76.00
1347;DHT22;667;48.796;9.480;2024-02-23T02:29:55;9.70;75.80
1347;DHT22;667;48.796;9.480;2024-02-23T02:32:20;9.70;75.70
1347;DHT22;667;48.796;9.480;2024-02-23T02:34:46;9.70;75.40
1347;DHT22;667;48.796;9.480;2024-02-23T02:37:11;9.60;75.30
1347;DHT22;667;48.796;9.480;2024-02-23T02:39:37;9.60;75.00
1347;DHT22;667;48.796;9.480;2024-02-23T02:42:02;9.60;75.00
1347;DHT22;667;48.796;9.480;2024-02-23T02:44:28;9.50;74.90
1347;DHT22;667;48.796;9.480;2024-02-23T02:46:59;9.50;75.00
1347;DHT22;667;48.796;9.480;2024-02-23T02:49:24;9.40;75.10
1347;DHT22;667;48.796;9.480;2024-02-23T02:51:50;9.40;75.30
1347;DHT22;667;48.796;9.480;2024-02-23T02:54:16;9.40;75.20
1347;DHT22;667;48.796;9.480;2024-02-23T02:56:45;9.40;75.60
1347;DHT22;667;48.796;9.480;2024-02-23T02:59:12;9.30;75.00
1347;DHT22;667;48.796;9.480;2024-02-23T03:01:37;9.30;75.20
1347;DHT22;667;48.796;9.480;2024-02-23T03:04:03;9.30;75.10
1347;DHT22;667;48.796;9.480;2024-02-23T03:06:28;9.30;75.10
1347;DHT22;667;48.796;9.480;2024-02-23T03:08:54;9.20;75.20
1347;DHT22;667;48.796;9.480;2024-02-23T03:11:19;9.30;75.30
1347;DHT22;667;48.796;9.480;2024-02-23T03:13:45;9.20;75.00
1347;DHT22;667;48.796;9.480;2024-02-23T03:16:20;9.30;75.00
1347;DHT22;667;48.796;9.480;2024-02-23T03:18:48;9.20;75.10
1347;DHT22;667;48.796;9.480;2024-02-23T03:21:14;9.20;75.20
1347;DHT22;667;48.796;9.480;2024-02-23T03:23:40;9.20;75.40
1347;DHT22;667;48.796;9.480;2024-02-23T03:26:07;9.30;75.60
1347;DHT22;667;48.796;9.480;2024-02-23T03:28:32;9.30;75.60
1347;DHT22;667;48.796;9.480;2024-02-23T03:30:59;9.30;75.40
1347;DHT22;667;48.796;9.480;2024-02-23T03:33:25;9.30;75.40
1347;DHT22;667;48.796;9.480;2024-02-23T03:35:51;9.30;75.20
1347;DHT22;667;48.796;9.480;2024-02-23T03:38:16;9.30;75.30
1347;DHT22;667;48.796;9.480;2024-02-23T03:40:42;9.30;75.30
1347;DHT22;667;48.796;9.480;2024-02-23T03:43:07;9.30;75.20
1347;DHT22;667;48.796;9.480;2024-02-23T03:45:33;9.30;75.00
1347;DHT22;667;48.796;9.480;2024-02-23T03:47:59;9.30;74.80
1347;DHT22;667;48.796;9.480;2024-02-23T03:50:25;9.30;74.70
1347;DHT22;667;48.796;9.480;2024-02-23T03:52:51;9.30;74.40
1347;DHT22;667;48.796;9.480;2024-02-23T03:55:16;9.30;74.30
1347;DHT22;667;48.796;9.480;2024-02-23T03:57:42;9.30;74.30
1347;DHT22;667;48.796;9.480;2024-02-23T04:00:08;9.20;74.10
1347;DHT22;667;48.796;9.480;2024-02-23T04:02:34;9.20;74.10
1347;DHT22;667;48.796;9.480;2024-02-23T04:05:00;9.20;73.90
1347;DHT22;667;48.796;9.480;2024-02-23T04:07:25;9.20;73.90
1347;DHT22;667;48.796;9.480;2024-02-23T04:09:51;9.20;73.90
1347;DHT22;667;48.796;9.480;2024-02-23T04:12:21;9.10;73.50
1347;DHT22;667;48.796;9.480;2024-02-23T04:14:46;9.20;73.70
1347;DHT22;667;48.796;9.480;2024-02-23T04:17:12;9.20;73.70
1347;DHT22;667;48.796;9.480;2024-02-23T04:19:38;9.20;73.70
1347;DHT22;667;48.796;9.480;2024-02-23T04:22:07;9.10;73.80
1347;DHT22;667;48.796;9.480;2024-02-23T04:24:36;9.10;73.90
1347;DHT22;667;48.796;9.480;2024-02-23T04:27:01;9.10;74.20
1347;DHT22;667;48.796;9.480;2024-02-23T04:29:27;9.10;74.50
1347;DHT22;667;48.796;9.480;2024-02-23T04:31:53;9.00;74.80
1347;DHT22;667;48.796;9.480;2024-02-23T04:34:18;9.00;75.20
1347;DHT22;667;48.796;9.480;2024-02-23T04:36:44;9.00;75.50
1347;DHT22;667;48.796;9.480;2024-02-23T04:39:09;9.00;75.90
1347;DHT22;667;48.796;9.480;2024-02-23T04:41:35;8.90;76.10
1347;DHT22;667;48.796;9.480;2024-02-23T04:44:00;8.90;76.50
1347;DHT22;667;48.796;9.480;2024-02-23T04:46:27;8.90;76.50
1347;DHT22;667;48.796;9.480;2024-02-23T04:48:52;8.80;76.50
1347;DHT22;667;48.796;9.480;2024-02-23T04:51:18;8.80;76.70
1347;DHT22;667;48.796;9.480;2024-02-23T04:53:44;8.70;76.80
1347;DHT22;667;48.796;9.480;2024-02-23T04:56:10;8.70;77.00
1347;DHT22;667;48.796;9.480;2024-02-23T04:58:35;8.70;77.00
1347;DHT22;667;48.796;9.480;2024-02-23T05:01:03;8.70;77.00
1347;DHT22;667;48.796;9.480;2024-02-23T05:03:28;8.70;76.90
1347;DHT22;667;48.796;9.480;2024-02-23T05:05:54;8.70;76.90
1347;DHT22;667;48.796;9.480;2024-02-23T05:08:20;8.60;76.90
1347;DHT22;667;48.796;9.480;2024-02-23T05:10:46;8.60;77.00
1347;DHT22;667;48.796;9.480;2024-02-23T05:13:13;8.60;77.00
1347;DHT22;667;48.796;9.480;2024-02-23T05:15:38;8.60;77.10
1347;DHT22;667;48.796;9.480;2024-02-23T05:18:04;8.60;77.30
1347;DHT22;667;48.796;9.480;2024-02-23T05:20:30;8.60;77.20
1347;DHT22;667;48.796;9.480;2024-02-23T05:22:56;8.50;77.30
1347;DHT22;667;48.796;9.480;2024-02-23T05:25:21;8.50;77.30
1347;DHT22;667;48.796;9.480;2024-02-23T05:27:47;8.60;77.30
1347;DHT22;667;48.796;9.480;2024-02-23T05:30:13;8.60;77.10
1347;DHT22;667;48.796;9.480;2024-02-23T05:32:38;8.50;76.90
1347;DHT22;667;48.796;9.480;2024-02-23T05:35:04;8.50;77.10
1347;DHT22;667;48.796;9.480;2024-02-23T05:37:30;8.50;77.10
1347;DHT22;667;48.796;9.480;2024-02-23T05:39:55;8.50;77.20
1347;DHT22;667;48.796;9.480;2024-02-23T05:42:21;8.50;77.20
1347;DHT22;667;48.796;9.480;2024-02-23T05:44:47;8.50;77.10
1347;DHT22;667;48.796;9.480;2024-02-23T05:47:14;8.50;77.20
1347;DHT22;667;48.796;9.480;2024-02-23T05:49:39;8.50;77.10
1347;DHT22;667;48.796;9.480;2024-02-23T05:52:05;8.50;77.10
1347;DHT22;667;48.796;9.480;2024-02-23T05:54:31;8.50;77.80
1347;DHT22;667;48.796;9.480;2024-02-23T05:56:57;8.50;76.80
1347;DHT22;667;48.796;9.480;2024-02-23T05:59:22;8.50;76.80
1347;DHT22;667;48.796;9.480;2024-02-23T06:01:48;8.40;76.80
1347;DHT22;667;48.796;9.480;2024-02-23T06:04:13;8.40;76.90
1347;DHT22;667;48.796;9.480;2024-02-23T06:06:42;8.40;76.90
1347;DHT22;667;48.796;9.480;2024-02-23T06:09:11;8.40;76.80
1347;DHT22;667;48.796;9.480;2024-02-23T06:11:36;8.40;77.50
1347;DHT22;667;48.796;9.480;2024-02-23T06:14:02;8.40;76.70
1347;DHT22;667;48.796;9.480;2024-02-23T06:16:28;8.40;76.70
1347;DHT22;667;48.796;9.480;2024-02-23T06:18:53;8.30;76.80
1347;DHT22;667;48.796;9.480;2024-02-23T06:21:19;8.30;76.80
1347;DHT22;667;48.796;9.480;2024-02-23T06:23:44;8.30;77.00
1347;DHT22;667;48.796;9.480;2024-02-23T06:26:10;8.20;76.90
1347;DHT22;667;48.796;9.480;2024-02-23T06:28:37;8.20;77.10
1347;DHT22;667;48.796;9.480;2024-02-23T06:31:05;8.10;77.10
1347;DHT22;667;48.796;9.480;2024-02-23T06:33:33;8.10;77.50
1347;DHT22;667;48.796;9.480;2024-02-23T06:35:59;8.10;77.60
1347;DHT22;667;48.796;9.480;2024-02-23T06:38:25;8.10;77.70
1347;DHT22;667;48.796;9.480;2024-02-23T06:40:51;8.10;77.60
1347;DHT22;667;48.796;9.480;2024-02-23T06:43:17;8.10;77.60
1347;DHT22;667;48.796;9.480;2024-02-23T06:45:44;8.10;77.80
1347;DHT22;667;48.796;9.480;2024-02-23T06:48:10;8.10;77.80
1347;DHT22;667;48.796;9.480;2024-02-23T06:50:35;8.10;77.70
1347;DHT22;667;48.796;9.480;2024-02-23T06:53:01;8.10;77.60
1347;DHT22;667;48.796;9.480;2024-02-23T06:55:27;8.10;77.60
1347;DHT22;667;48.796;9.480;2024-02-23T06:57:54;8.10;77.60
1347;DHT22;667;48.796;9.480;2024-02-23T07:00:20;8.10;77.60
1347;DHT22;667;48.796;9.480;2024-02-23T07:02:47;8.00;77.50
1347;DHT22;667;48.796;9.480;2024-02-23T07:05:12;8.00;77.50
1347;DHT22;667;48.796;9.480;2024-02-23T07:07:39;8.00;77.50
1347;DHT22;667;48.796;9.480;2024-02-23T07:10:06;8.00;77.80
1347;DHT22;667;48.796;9.480;2024-02-23T07:12:32;8.00;77.70
1347;DHT22;667;48.796;9.480;2024-02-23T07:14:57;8.00;77.80
1347;DHT22;667;48.796;9.480;2024-02-23T07:17:23;8.00;77.80
1347;DHT22;667;48.796;9.480;2024-02-23T07:19:49;8.10;78.10
1347;DHT22;667;48.796;9.480;2024-02-23T07:22:16;8.10;78.00
1347;DHT22;667;48.796;9.480;2024-02-23T07:24:43;8.10;78.10
1347;DHT22;667;48.796;9.480;2024-02-23T07:27:09;8.10;78.30
1347;DHT22;667;48.796;9.480;2024-02-23T07:29:35;8.10;78.50
1347;DHT22;667;48.796;9.480;2024-02-23T07:32:01;8.10;78.50
1347;DHT22;667;48.796;9.480;2024-02-23T07:34:27;8.10;78.50
1347;DHT22;667;48.796;9.480;2024-02-23T07:36:53;8.20;78.60
1347;DHT22;667;48.796;9.480;2024-02-23T07:39:19;8.20;78.60
1347;DHT22;667;48.796;9.480;2024-02-23T07:41:45;8.20;78.70
1347;DHT22;667;48.796;9.480;2024-02-23T07:44:10;8.20;78.80
1347;DHT22;667;48.796;9.480;2024-02-23T07:46:36;8.20;78.90
1347;DHT22;667;48.796;9.480;2024-02-23T07:49:02;8.30;79.10
1347;DHT22;667;48.796;9.480;2024-02-23T07:51:28;8.30;79.10
1347;DHT22;667;48.796;9.480;2024-02-23T07:53:54;8.40;79.20
1347;DHT22;667;48.796;9.480;2024-02-23T07:56:20;8.40;79.20
1347;DHT22;667;48.796;9.480;2024-02-23T07:58:46;8.50;79.10
1347;DHT22;667;48.796;9.480;2024-02-23T08:01:13;8.50;79.00
1347;DHT22;667;48.796;9.480;2024-02-23T08:03:40;8.60;78.90
1347;DHT22;667;48.796;9.480;2024-02-23T08:06:06;8.60;78.60
1347;DHT22;667;48.796;9.480;2024-02-23T08:08:31;8.70;78.70
1347;DHT22;667;48.796;9.480;2024-02-23T08:11:00;8.70;78.40
1347;DHT22;667;48.796;9.480;2024-02-23T08:13:26;8.70;77.80
1347;DHT22;667;48.796;9.480;2024-02-23T08:15:52;8.80;77.60
1347;DHT22;667;48.796;9.480;2024-02-23T08:18:18;8.80;77.20
1347;DHT22;667;48.796;9.480;2024-02-23T08:20:43;8.90;77.00
1347;DHT22;667;48.796;9.480;2024-02-23T08:23:09;8.90;76.50
1347;DHT22;667;48.796;9.480;2024-02-23T08:25:35;8.90;76.20
1347;DHT22;667;48.796;9.480;2024-02-23T08:28:01;8.90;75.90
1347;DHT22;667;48.796;9.480;2024-02-23T08:30:26;9.00;75.60
1347;DHT22;667;48.796;9.480;2024-02-23T08:32:52;9.00;75.30
1347;DHT22;667;48.796;9.480;2024-02-23T08:35:18;9.10;75.20
1347;DHT22;667;48.796;9.480;2024-02-23T08:37:44;9.10;74.60
1347;DHT22;667;48.796;9.480;2024-02-23T08:40:10;9.10;74.10
1347;DHT22;667;48.796;9.480;2024-02-23T08:42:36;9.20;74.20
1347;DHT22;667;48.796;9.480;2024-02-23T08:45:01;9.20;74.30
1347;DHT22;667;48.796;9.480;2024-02-23T08:47:27;9.30;74.10
1347;DHT22;667;48.796;9.480;2024-02-23T08:49:57;9.30;73.70
1347;DHT22;667;48.796;9.480;2024-02-23T08:52:23;9.30;73.40
1347;DHT22;667;48.796;9.480;2024-02-23T08:54:48;9.30;74.00
1347;DHT22;667;48.796;9.480;2024-02-23T08:57:14;9.40;73.10
1347;DHT22;667;48.796;9.480;2024-02-23T08:59:44;9.40;72.90
1347;DHT22;667;48.796;9.480;2024-02-23T09:02:10;9.40;72.90
1347;DHT22;667;48.796;9.480;2024-02-23T09:04:35;9.40;72.60
1347;DHT22;667;48.796;9.480;2024-02-23T09:07:01;9.40;71.80
1347;DHT22;667;48.796;9.480;2024-02-23T09:09:27;9.40;71.40
1347;DHT22;667;48.796;9.480;2024-02-23T09:11:52;9.40;71.30
1347;DHT22;667;48.796;9.480;2024-02-23T09:14:18;9.40;70.80
1347;DHT22;667;48.796;9.480;2024-02-23T09:16:44;9.40;70.10
1347;DHT22;667;48.796;9.480;2024-02-23T09:19:11;9.40;69.80
1347;DHT22;667;48.796;9.480;2024-02-23T09:21:37;9.40;69.40
1347;DHT22;667;48.796;9.480;2024-02-23T09:24:03;9.30;68.90
1347;DHT22;667;48.796;9.480;2024-02-23T09:26:29;9.40;68.50
1347;DHT22;667;48.796;9.480;2024-02-23T09:28:55;9.40;68.10
1347;DHT22;667;48.796;9.480;2024-02-23T09:31:20;9.40;68.40
1347;DHT22;667;48.796;9.480;2024-02-23T09:33:46;9.40;68.00
1347;DHT22;667;48.796;9.480;2024-02-23T09:36:12;9.40;66.80
1347;DHT22;667;48.796;9.480;2024-02-23T09:38:37;9.40;66.40
1347;DHT22;667;48.796;9.480;2024-02-23T09:41:03;9.40;66.60
1347;DHT22;667;48.796;9.480;2024-02-23T09:43:29;9.40;67.20
1347;DHT22;667;48.796;9.480;2024-02-23T09:45:58;9.40;67.10
1347;DHT22;667;48.796;9.480;2024-02-23T09:48:24;9.50;67.10
1347;DHT22;667;48.796;9.480;2024-02-23T09:50:52;9.60;67.10
1347;DHT22;667;48.796;9.480;2024-02-23T09:53:19;9.60;66.50
1347;DHT22;667;48.796;9.480;2024-02-23T09:55:45;9.60;66.10
1347;DHT22;667;48.796;9.480;2024-02-23T09:58:14;9.70;66.10
1347;DHT22;667;48.796;9.480;2024-02-23T10:00:42;9.70;66.10
1347;DHT22;667;48.796;9.480;2024-02-23T10:03:09;9.80;65.80
1347;DHT22;667;48.796;9.480;2024-02-23T10:05:35;9.90;65.50
1347;DHT22;667;48.796;9.480;2024-02-23T10:08:00;9.90;65.30
1347;DHT22;667;48.796;9.480;2024-02-23T10:10:33;10.00;63.20
1347;DHT22;667;48.796;9.480;2024-02-23T10:12:59;10.00;63.10
1347;DHT22;667;48.796;9.480;2024-02-23T10:15:25;10.10;63.10
1347;DHT22;667;48.796;9.480;2024-02-23T10:17:51;10.20;62.90
1347;DHT22;667;48.796;9.480;2024-02-23T10:20:17;10.20;62.80
1347;DHT22;667;48.796;9.480;2024-02-23T10:22:43;10.30;62.80
1347;DHT22;667;48.796;9.480;2024-02-23T10:25:10;10.40;63.10
1347;DHT22;667;48.796;9.480;2024-02-23T10:27:36;10.40;62.40
1347;DHT22;667;48.796;9.480;2024-02-23T10:30:02;10.40;61.50
1347;DHT22;667;48.796;9.480;2024-02-23T10:32:29;10.40;60.90
1347;DHT22;667;48.796;9.480;2024-02-23T10:35:00;10.30;60.50
1347;DHT22;667;48.796;9.480;2024-02-23T10:37:26;10.30;60.40
1347;DHT22;667;48.796;9.480;2024-02-23T10:39:57;10.30;60.60
1347;DHT22;667;48.796;9.480;2024-02-23T10:42:24;10.30;60.90
1347;DHT22;667;48.796;9.480;2024-02-23T10:44:50;10.30;61.00
1347;DHT22;667;48.796;9.480;2024-02-23T10:47:16;10.30;60.70
1347;DHT22;667;48.796;9.480;2024-02-23T10:49:44;10.30;59.80
1347;DHT22;667;48.796;9.480;2024-02-23T10:52:11;10.30;59.70
1347;DHT22;667;48.796;9.480;2024-02-23T10:54:39;10.30;59.90
1347;DHT22;667;48.796;9.480;2024-02-23T10:57:05;10.20;59.80
1347;DHT22;667;48.796;9.480;2024-02-23T10:59:31;10.30;59.50
1347;DHT22;667;48.796;9.480;2024-02-23T11:01:59;10.20;59.50
1347;DHT22;667;48.796;9.480;2024-02-23T11:04:26;10.30;59.90
1347;DHT22;667;48.796;9.480;2024-02-23T11:06:54;10.30;59.40
1347;DHT22;667;48.796;9.480;2024-02-23T11:09:24;10.30;59.80
1347;DHT22;667;48.796;9.480;2024-02-23T11:11:57;10.30;59.90
1347;DHT22;667;48.796;9.480;2024-02-23T11:14:36;10.40;59.70
1347;DHT22;667;48.796;9.480;2024-02-23T11:17:03;10.40;59.10
1347;DHT22;667;48.796;9.480;2024-02-23T11:19:39;10.40;58.90
1347;DHT22;667;48.796;9.480;2024-02-23T11:22:05;10.30;58.50
1347;DHT22;667;48.796;9.480;2024-02-23T11:24:34;10.30;58.40
1347;DHT22;667;48.796;9.480;2024-02-23T11:27:00;10.30;58.50
1347;DHT22;667;48.796;9.480;2024-02-23T11:29:34;10.30;58.60
1347;DHT22;667;48.796;9.480;2024-02-23T11:32:02;10.40;58.90
1347;DHT22;667;48.796;9.480;2024-02-23T11:34:29;10.40;59.00
1347;DHT22;667;48.796;9.480;2024-02-23T11:36:56;10.50;59.10
1347;DHT22;667;48.796;9.480;2024-02-23T11:39:23;10.50;59.10
1347;DHT22;667;48.796;9.480;2024-02-23T11:41:49;10.50;59.00
1347;DHT22;667;48.796;9.480;2024-02-23T11:44:15;10.60;58.90
1347;DHT22;667;48.796;9.480;2024-02-23T11:46:46;10.60;58.90
1347;DHT22;667;48.796;9.480;2024-02-23T11:49:14;10.60;58.70
1347;DHT22;667;48.796;9.480;2024-02-23T11:51:39;10.70;58.40
1347;DHT22;667;48.796;9.480;2024-02-23T11:54:06;10.70;57.60
1347;DHT22;667;48.796;9.480;2024-02-23T11:56:31;10.70;57.50
1347;DHT22;667;48.796;9.480;2024-02-23T11:58:57;10.70;57.50
1347;DHT22;667;48.796;9.480;2024-02-23T12:01:23;10.70;57.40
1347;DHT22;667;48.796;9.480;2024-02-23T12:03:49;10.70;57.60
1347;DHT22;667;48.796;9.480;2024-02-23T12:06:15;10.70;57.40
1347;DHT22;667;48.796;9.480;2024-02-23T12:08:44;10.70;57.40
1347;DHT22;667;48.796;9.480;2024-02-23T12:11:11;10.70;57.50
1347;DHT22;667;48.796;9.480;2024-02-23T12:13:37;10.70;57.70
1347;DHT22;667;48.796;9.480;2024-02-23T12:16:04;10.70;57.90
1347;DHT22;667;48.796;9.480;2024-02-23T12:18:33;10.80;57.90
1347;DHT22;667;48.796;9.480;2024-02-23T12:21:06;10.80;57.90
1347;DHT22;667;48.796;9.480;2024-02-23T12:23:50;10.80;58.00
1347;DHT22;667;48.796;9.480;2024-02-23T12:26:17;10.90;57.80
1347;DHT22;667;48.796;9.480;2024-02-23T12:28:44;10.80;57.60
1347;DHT22;667;48.796;9.480;2024-02-23T12:31:10;10.90;57.70
1347;DHT22;667;48.796;9.480;2024-02-23T12:33:39;10.90;57.70
1347;DHT22;667;48.796;9.480;2024-02-23T12:36:06;10.90;57.50
1347;DHT22;667;48.796;9.480;2024-02-23T12:38:32;10.90;57.30
1347;DHT22;667;48.796;9.480;2024-02-23T12:40:59;10.90;57.30
1347;DHT22;667;48.796;9.480;2024-02-23T12:43:25;11.00;57.40
1347;DHT22;667;48.796;9.480;2024-02-23T12:45:52;11.00;57.30
1347;DHT22;667;48.796;9.480;2024-02-23T12:48:18;11.00;57.10
1347;DHT22;667;48.796;9.480;2024-02-23T12:50:44;11.00;56.80
1347;DHT22;667;48.796;9.480;2024-02-23T12:56:07;11.00;56.70
1347;DHT22;667;48.796;9.480;2024-02-23T12:58:38;11.00;57.20
1347;DHT22;667;48.796;9.480;2024-02-23T13:01:04;11.00;57.20
1347;DHT22;667;48.796;9.480;2024-02-23T13:03:31;11.00;57.40
1347;DHT22;667;48.796;9.480;2024-02-23T13:05:57;11.10;57.60
1347;DHT22;667;48.796;9.480;2024-02-23T13:08:24;11.10;57.60
1347;DHT22;667;48.796;9.480;2024-02-23T13:10:51;11.20;57.40
1347;DHT22;667;48.796;9.480;2024-02-23T13:13:17;11.10;57.10
1347;DHT22;667;48.796;9.480;2024-02-23T13:15:44;11.20;57.00
1347;DHT22;667;48.796;9.480;2024-02-23T13:18:09;11.20;57.10
1347;DHT22;667;48.796;9.480;2024-02-23T13:20:36;11.20;57.20
1347;DHT22;667;48.796;9.480;2024-02-23T13:23:02;11.20;57.50
1347;DHT22;667;48.796;9.480;2024-02-23T13:25:28;11.30;57.40
1347;DHT22;667;48.796;9.480;2024-02-23T13:27:54;11.30;57.40
1347;DHT22;667;48.796;9.480;2024-02-23T13:30:19;11.30;57.30
1347;DHT22;667;48.796;9.480;2024-02-23T13:32:45;11.30;57.20
1347;DHT22;667;48.796;9.480;2024-02-23T13:35:11;11.40;57.30
1347;DHT22;667;48.796;9.480;2024-02-23T13:37:36;11.40;57.00
1347;DHT22;667;48.796;9.480;2024-02-23T13:40:02;11.40;56.70
1347;DHT22;667;48.796;9.480;2024-02-23T13:42:29;11.40;56.50
1347;DHT22;667;48.796;9.480;2024-02-23T13:44:54;11.40;56.40
1347;DHT22;667;48.796;9.480;2024-02-23T13:47:20;11.40;56.30
1347;DHT22;667;48.796;9.480;2024-02-23T13:49:45;11.40;56.40
1347;DHT22;667;48.796;9.480;2024-02-23T13:52:11;11.30;56.40
1347;DHT22;667;48.796;9.480;2024-02-23T13:54:36;11.30;56.50
1347;DHT22;667;48.796;9.480;2024-02-23T13:57:03;11.30;56.50
1347;DHT22;667;48.796;9.480;2024-02-23T13:59:29;11.30;56.70
1347;DHT22;667;48.796;9.480;2024-02-23T14:01:54;11.30;56.90
1347;DHT22;667;48.796;9.480;2024-02-23T14:04:20;11.40;57.10
1347;DHT22;667;48.796;9.480;2024-02-23T14:06:45;11.40;57.10
1347;DHT22;667;48.796;9.480;2024-02-23T14:09:11;11.40;57.20
1347;DHT22;667;48.796;9.480;2024-02-23T14:11:37;11.50;57.40
1347;DHT22;667;48.796;9.480;2024-02-23T14:14:02;11.50;57.20
1347;DHT22;667;48.796;9.480;2024-02-23T14:16:28;11.50;57.10
1347;DHT22;667;48.796;9.480;2024-02-23T14:18:54;11.40;56.60
1347;DHT22;667;48.796;9.480;2024-02-23T14:21:20;11.40;56.40
1347;DHT22;667;48.796;9.480;2024-02-23T14:23:48;11.40;56.50
1347;DHT22;667;48.796;9.480;2024-02-23T14:26:13;11.40;56.60
1347;DHT22;667;48.796;9.480;2024-02-23T14:28:39;11.40;56.80
1347;DHT22;667;48.796;9.480;2024-02-23T14:31:04;11.40;57.00
1347;DHT22;667;48.796;9.480;2024-02-23T14:33:32;11.40;57.10
1347;DHT22;667;48.796;9.480;2024-02-23T14:35:57;11.40;57.00
1347;DHT22;667;48.796;9.480;2024-02-23T14:38:23;11.30;56.80
1347;DHT22;667;48.796;9.480;2024-02-23T14:40:49;11.30;56.80
1347;DHT22;667;48.796;9.480;2024-02-23T14:43:14;11.30;56.80
1347;DHT22;667;48.796;9.480;2024-02-23T14:45:40;11.30;57.00
1347;DHT22;667;48.796;9.480;2024-02-23T14:48:07;11.30;57.00
1347;DHT22;667;48.796;9.480;2024-02-23T14:50:32;11.30;57.00
1347;DHT22;667;48.796;9.480;2024-02-23T14:52:58;11.30;56.90
1347;DHT22;667;48.796;9.480;2024-02-23T14:55:24;11.30;57.10
1347;DHT22;667;48.796;9.480;2024-02-23T14:57:49;11.30;57.20
1347;DHT22;667;48.796;9.480;2024-02-23T15:00:15;11.30;57.20
1347;DHT22;667;48.796;9.480;2024-02-23T15:02:41;11.30;57.10
1347;DHT22;667;48.796;9.480;2024-02-23T15:05:07;11.30;57.00
1347;DHT22;667;48.796;9.480;2024-02-23T15:07:33;11.40;57.10
1347;DHT22;667;48.796;9.480;2024-02-23T15:10:00;11.40;57.10
1347;DHT22;667;48.796;9.480;2024-02-23T15:12:31;11.40;57.10
1347;DHT22;667;48.796;9.480;2024-02-23T15:14:57;11.40;56.90
1347;DHT22;667;48.796;9.480;2024-02-23T15:17:22;11.40;56.80
1347;DHT22;667;48.796;9.480;2024-02-23T15:19:48;11.40;56.70
1347;DHT22;667;48.796;9.480;2024-02-23T15:22:13;11.40;56.70
1347;DHT22;667;48.796;9.480;2024-02-23T15:24:40;11.40;56.90
1347;DHT22;667;48.796;9.480;2024-02-23T15:27:08;11.40;56.80
1347;DHT22;667;48.796;9.480;2024-02-23T15:29:34;11.40;56.40
1347;DHT22;667;48.796;9.480;2024-02-23T15:32:00;11.40;56.30
1347;DHT22;667;48.796;9.480;2024-02-23T15:34:26;11.40;56.60
1347;DHT22;667;48.796;9.480;2024-02-23T15:36:52;11.40;56.70
1347;DHT22;667;48.796;9.480;2024-02-23T15:39:17;11.40;56.80
1347;DHT22;667;48.796;9.480;2024-02-23T15:41:43;11.40;56.80
1347;DHT22;667;48.796;9.480;2024-02-23T15:44:08;11.40;56.90
1347;DHT22;667;48.796;9.480;2024-02-23T15:46:34;11.40;57.00
1347;DHT22;667;48.796;9.480;2024-02-23T15:49:00;11.40;56.90
1347;DHT22;667;48.796;9.480;2024-02-23T15:51:26;11.40;56.80
1347;DHT22;667;48.796;9.480;2024-02-23T15:53:51;11.40;56.70
1347;DHT22;667;48.796;9.480;2024-02-23T15:56:17;11.30;56.60
1347;DHT22;667;48.796;9.480;2024-02-23T15:58:43;11.30;56.80
1347;DHT22;667;48.796;9.480;2024-02-23T16:01:08;11.40;57.00
1347;DHT22;667;48.796;9.480;2024-02-23T16:03:34;11.30;56.50
1347;DHT22;667;48.796;9.480;2024-02-23T16:06:00;11.30;56.30
1347;DHT22;667;48.796;9.480;2024-02-23T16:08:45;11.30;56.10
1347;DHT22;667;48.796;9.480;2024-02-23T16:11:12;11.30;56.10
1347;DHT22;667;48.796;9.480;2024-02-23T16:13:41;11.20;56.20
1347;DHT22;667;48.796;9.480;2024-02-23T16:16:11;11.20;56.30
1347;DHT22;667;48.796;9.480;2024-02-23T16:18:39;11.20;55.90
1347;DHT22;667;48.796;9.480;2024-02-23T16:21:05;11.20;56.00
1347;DHT22;667;48.796;9.480;2024-02-23T16:23:31;11.20;56.00